createdAt,value
2019-06-11T00:01:06.477Z,164.47
2019-06-11T00:03:32.444Z,161.10
2019-06-11T00:05:58.936Z,159.00
2019-06-11T00:08:25.076Z,160.05
2019-06-11T00:10:53.005Z,158.07
2019-06-11T00:13:19.136Z,160.35
2019-06-11T00:15:45.313Z,167.57
2019-06-11T00:18:12.377Z,150.97
2019-06-11T00:20:38.783Z,154.12
2019-06-11T00:23:06.195Z,151.30
2019-06-11T00:25:32.905Z,156.52
2019-06-11T00:27:59.108Z,155.67
2019-06-11T00:30:25.192Z,159.65
2019-06-11T00:32:53.391Z,162.07
2019-06-11T00:35:19.276Z,174.55
2019-06-11T00:37:45.342Z,162.60
2019-06-11T00:40:12.449Z,189.77
2019-06-11T00:42:38.700Z,152.12
2019-06-11T00:45:08.456Z,165.22
2019-06-11T00:47:35.208Z,154.65
2019-06-11T00:50:05.351Z,160.75
2019-06-11T00:52:32.944Z,158.40
2019-06-11T00:54:59.220Z,157.30
2019-06-11T00:57:25.296Z,152.50
2019-06-11T00:59:52.406Z,228.47
2019-06-11T01:02:18.664Z,160.30
2019-06-11T01:04:44.748Z,161.97
2019-06-11T01:07:12.783Z,159.05
2019-06-11T01:09:38.830Z,158.25
2019-06-11T01:12:08.589Z,157.15
2019-06-11T01:14:33.252Z,166.70
2019-06-11T01:16:59.414Z,159.10
2019-06-11T01:19:25.476Z,165.73
2019-06-11T01:21:52.262Z,161.22
2019-06-11T01:24:18.544Z,159.97
2019-06-11T01:26:44.714Z,154.57
2019-06-11T01:29:14.314Z,151.72
2019-06-11T01:31:38.865Z,161.97
2019-06-11T01:34:07.581Z,162.25
2019-06-11T01:36:32.977Z,156.57
2019-06-11T01:38:59.043Z,165.35
2019-06-11T01:41:25.372Z,160.18
2019-06-11T01:43:52.340Z,164.22
2019-06-11T01:46:18.947Z,160.40
2019-06-11T01:48:45.039Z,162.43
2019-06-11T01:51:13.976Z,162.40
2019-06-11T01:53:39.096Z,158.45
2019-06-11T01:56:07.317Z,154.03
2019-06-11T01:58:33.489Z,169.13
2019-06-11T02:00:59.644Z,158.10
2019-06-11T02:03:37.062Z,155.87
2019-06-11T02:05:53.827Z,156.80
2019-06-11T02:08:19.891Z,157.50
2019-06-11T02:10:45.968Z,167.93
2019-06-11T02:13:15.058Z,160.82
2019-06-11T02:15:40.054Z,169.77
2019-06-11T02:18:06.181Z,165.70
2019-06-11T02:20:32.931Z,164.40
2019-06-11T02:22:59.160Z,162.85
2019-06-11T02:25:25.265Z,185.55
2019-06-11T02:27:53.370Z,151.18
2019-06-11T02:30:38.835Z,159.10
2019-06-11T02:32:47.642Z,170.90
2019-06-11T02:35:39.595Z,159.57
2019-06-11T02:37:42.814Z,179.97
2019-06-11T02:40:13.781Z,160.72
2019-06-11T02:42:37.285Z,169.95
2019-06-11T02:45:04.862Z,171.93
2019-06-11T02:47:34.226Z,164.50
2019-06-11T02:50:02.236Z,172.98
2019-06-11T02:52:28.514Z,172.90
2019-06-11T02:54:54.876Z,159.25
2019-06-11T02:57:28.186Z,164.35
2019-06-11T02:59:51.458Z,261.30
2019-06-11T03:02:23.078Z,163.45
2019-06-11T03:04:57.587Z,182.57
2019-06-11T03:07:20.489Z,148.35
2019-06-11T03:09:48.224Z,168.60
2019-06-11T03:12:17.187Z,157.07
2019-06-11T03:14:47.239Z,208.02
2019-06-11T03:17:17.841Z,145.80
2019-06-11T03:19:45.379Z,155.05
2019-06-11T03:22:14.060Z,149.40
2019-06-11T03:24:41.813Z,141.32
2019-06-11T03:27:07.521Z,151.55
2019-06-11T03:29:34.632Z,150.47
2019-06-11T03:35:49.991Z,142.57
2019-06-11T03:37:29.018Z,145.15
2019-06-11T03:39:41.267Z,142.62
2019-06-11T03:41:53.020Z,140.40
2019-06-11T03:44:22.138Z,137.65
2019-06-11T03:46:47.226Z,140.00
2019-06-11T03:49:15.318Z,140.30
2019-06-11T03:51:42.360Z,134.45
2019-06-11T03:54:10.973Z,129.30
2019-06-11T03:56:36.599Z,134.35
2019-06-11T03:59:03.268Z,131.05
2019-06-11T04:01:37.307Z,127.32
2019-06-11T04:03:57.449Z,152.82
2019-06-11T04:06:50.924Z,145.87
2019-06-11T04:08:51.592Z,162.70
2019-06-11T04:11:19.360Z,153.90
2019-06-11T04:13:45.658Z,163.45
2019-06-11T04:16:12.796Z,159.70
2019-06-11T04:18:42.471Z,159.15
2019-06-11T04:21:07.583Z,148.13
2019-06-11T04:23:37.504Z,133.15
2019-06-11T04:26:02.344Z,132.78
2019-06-11T04:28:31.623Z,153.65
2019-06-11T04:30:56.726Z,149.57
2019-06-11T04:33:30.231Z,160.03
2019-06-11T04:35:51.526Z,136.68
2019-06-11T04:38:24.107Z,133.80
2019-06-11T04:40:45.692Z,126.95
2019-06-11T04:43:11.761Z,125.72
2019-06-11T04:45:43.438Z,122.40
2019-06-11T04:48:12.852Z,131.22
2019-06-11T04:50:41.797Z,124.62
2019-06-11T04:53:11.848Z,126.47
2019-06-11T04:55:41.646Z,128.60
2019-06-11T04:58:11.821Z,128.40
2019-06-11T05:04:14.051Z,127.50
2019-06-11T05:05:42.991Z,135.25
2019-06-11T05:08:10.690Z,131.37
2019-06-11T05:10:42.738Z,129.78
2019-06-11T05:13:03.413Z,129.72
2019-06-11T05:15:35.497Z,130.65
2019-06-11T05:17:57.470Z,129.35
2019-06-11T05:20:29.267Z,132.18
2019-06-11T05:22:51.923Z,129.70
2019-06-11T05:25:20.130Z,131.93
2019-06-11T05:27:46.205Z,134.37
2019-06-11T05:30:17.643Z,130.87
2019-06-11T05:32:41.795Z,140.73
2019-06-11T05:35:08.244Z,139.20
2019-06-11T05:37:59.435Z,133.45
2019-06-11T05:40:04.402Z,141.95
2019-06-11T05:42:35.851Z,138.15
2019-06-11T05:45:00.807Z,179.45
2019-06-11T05:47:27.299Z,139.97
2019-06-11T05:49:54.389Z,149.97
2019-06-11T05:52:22.095Z,144.13
2019-06-11T05:54:50.319Z,152.80
2019-06-11T05:57:16.444Z,159.85
2019-06-11T05:59:42.508Z,188.78
2019-06-11T06:02:11.097Z,159.67
2019-06-11T06:04:36.565Z,162.97
2019-06-11T06:07:02.827Z,164.35
2019-06-11T06:09:32.036Z,170.95
2019-06-11T06:11:56.891Z,166.25
2019-06-11T06:14:24.087Z,201.30
2019-06-11T06:16:51.172Z,194.50
2019-06-11T06:19:17.527Z,193.10
2019-06-11T06:21:43.603Z,196.78
2019-06-11T06:24:23.248Z,211.12
2019-06-11T06:26:40.218Z,213.20
2019-06-11T06:29:06.039Z,206.02
2019-06-11T06:31:32.566Z,196.57
2019-06-11T06:34:00.181Z,184.50
2019-06-11T06:36:27.612Z,209.57
2019-06-11T06:38:53.888Z,209.40
2019-06-11T06:41:21.038Z,199.45
2019-06-11T06:43:47.448Z,209.70
2019-06-11T06:46:13.539Z,214.85
2019-06-11T06:48:41.452Z,216.20
2019-06-11T06:51:07.596Z,222.45
2019-06-11T06:53:34.985Z,207.92
2019-06-11T06:56:01.665Z,221.68
2019-06-11T06:58:28.480Z,225.30
2019-06-11T07:00:55.752Z,231.78
2019-06-11T07:03:21.919Z,237.00
2019-06-11T07:05:50.639Z,234.22
2019-06-11T07:08:16.131Z,257.05
2019-06-11T07:10:45.757Z,241.02
2019-06-11T07:13:13.583Z,251.45
2019-06-11T07:15:45.438Z,267.93
2019-06-11T07:18:10.768Z,246.77
2019-06-11T07:20:38.471Z,263.20
2019-06-11T07:23:05.665Z,248.13
2019-06-11T07:25:35.941Z,257.12
2019-06-11T07:28:02.387Z,239.90
2019-06-11T07:30:30.338Z,236.87
2019-06-11T07:32:56.603Z,225.03
2019-06-11T07:35:23.459Z,214.90
2019-06-11T07:37:50.797Z,218.17
2019-06-11T07:40:17.317Z,233.87
2019-06-11T07:42:46.634Z,239.40
2019-06-11T07:45:11.958Z,272.70
2019-06-11T07:47:43.180Z,237.93
2019-06-11T07:50:06.535Z,231.63
2019-06-11T07:52:35.530Z,236.47
2019-06-11T07:55:01.356Z,251.58
2019-06-11T07:57:27.671Z,242.13
2019-06-11T07:59:53.747Z,309.27
2019-06-11T08:02:21.172Z,253.10
2019-06-11T08:04:53.123Z,275.25
2019-06-11T08:07:15.722Z,276.65
2019-06-11T08:10:09.592Z,249.42
2019-06-11T08:12:12.962Z,280.07
2019-06-11T08:14:42.248Z,279.48
2019-06-11T08:17:05.855Z,261.87
2019-06-11T08:19:38.448Z,272.37
2019-06-11T08:22:21.018Z,270.42
2019-06-11T08:24:33.360Z,279.80
2019-06-11T08:27:29.433Z,275.82
2019-06-11T08:29:23.941Z,253.25
2019-06-11T08:31:50.187Z,280.50
2019-06-11T08:34:16.419Z,265.02
2019-06-11T08:36:44.982Z,269.57
2019-06-11T08:39:10.580Z,261.57
2019-06-11T08:41:37.265Z,254.35
2019-06-11T08:44:03.558Z,289.12
2019-06-11T08:46:31.072Z,284.98
2019-06-11T08:49:00.448Z,256.98
2019-06-11T08:51:25.702Z,258.23
2019-06-11T08:53:51.755Z,271.37
2019-06-11T08:56:17.848Z,252.15
2019-06-11T08:58:44.859Z,246.32
2019-06-11T09:01:12.751Z,282.70
2019-06-11T09:03:42.057Z,269.25
2019-06-11T09:06:10.490Z,253.62
2019-06-11T09:08:35.208Z,269.95
2019-06-11T09:11:01.376Z,293.37
2019-06-11T09:13:27.473Z,302.75
2019-06-11T09:15:54.059Z,299.23
2019-06-11T09:18:21.155Z,309.45
2019-06-11T09:20:51.407Z,317.62
2019-06-11T09:23:15.489Z,318.00
2019-06-11T09:25:45.553Z,329.05
2019-06-11T09:28:10.709Z,352.68
2019-06-11T09:30:37.224Z,336.50
2019-06-11T09:33:03.300Z,355.23
2019-06-11T09:35:31.285Z,371.93
2019-06-11T09:37:59.863Z,381.40
2019-06-11T09:40:40.754Z,348.85
2019-06-11T09:42:54.122Z,373.27
2019-06-11T09:45:21.034Z,392.65
2019-06-11T09:47:59.412Z,398.40
2019-06-11T09:50:15.347Z,413.95
2019-06-11T09:52:42.968Z,419.13
2019-06-11T09:55:12.358Z,432.17
2019-06-11T09:57:38.402Z,447.63
2019-06-11T10:00:06.772Z,443.67
2019-06-11T10:02:32.848Z,512.20
2019-06-11T10:05:01.095Z,560.25
2019-06-11T10:07:26.912Z,483.55
2019-06-11T10:09:53.762Z,514.42
2019-06-11T10:12:20.780Z,486.68
2019-06-11T10:14:48.230Z,526.77
2019-06-11T10:17:15.053Z,505.05
2019-06-11T10:19:42.423Z,564.60
2019-06-11T10:22:10.694Z,526.58
2019-06-11T10:24:36.709Z,512.17
2019-06-11T10:27:03.488Z,492.90
2019-06-11T10:29:30.487Z,529.72
2019-06-11T10:31:56.751Z,586.17
2019-06-11T10:34:22.816Z,557.52
2019-06-11T10:36:50.807Z,545.33
2019-06-11T10:39:16.891Z,565.42
2019-06-11T10:41:50.473Z,568.02
2019-06-11T10:44:11.024Z,576.22
2019-06-11T10:46:37.223Z,602.42
2019-06-11T10:49:03.392Z,570.75
2019-06-11T10:51:30.689Z,581.37
2019-06-11T10:53:57.602Z,626.33
2019-06-11T10:56:23.835Z,544.58
2019-06-11T10:58:53.552Z,555.77
2019-06-11T11:01:17.920Z,534.95
2019-06-11T11:03:47.180Z,543.15
2019-06-11T11:06:13.486Z,559.80
2019-06-11T11:08:42.060Z,562.62
2019-06-11T11:11:07.624Z,559.30
2019-06-11T11:13:33.698Z,573.35
2019-06-11T11:16:01.626Z,558.92
2019-06-11T11:18:29.921Z,546.58
2019-06-11T11:20:56.541Z,557.67
2019-06-11T11:23:23.719Z,534.40
2019-06-11T11:25:53.245Z,538.52
2019-06-11T11:28:22.887Z,572.20
2019-06-11T11:30:46.174Z,563.90
2019-06-11T11:33:13.277Z,558.62
2019-06-11T11:35:39.339Z,541.73
2019-06-11T11:38:05.432Z,562.45
2019-06-11T11:40:37.996Z,558.95
2019-06-11T11:43:04.848Z,598.10
2019-06-11T11:45:31.062Z,551.37
2019-06-11T11:48:02.513Z,577.13
2019-06-11T11:50:25.429Z,578.62
2019-06-11T11:52:56.853Z,551.42
2019-06-11T11:55:26.999Z,565.15
2019-06-11T11:57:56.787Z,560.65
2019-06-11T12:00:41.518Z,545.92
2019-06-11T12:03:10.948Z,614.73
2019-06-11T12:05:35.936Z,632.95
2019-06-11T12:08:02.508Z,652.92
2019-06-11T12:10:30.530Z,637.92
2019-06-11T12:13:02.812Z,658.65
2019-06-11T12:15:24.645Z,651.48
2019-06-11T12:17:52.386Z,718.48
2019-06-11T12:20:20.526Z,686.67
2019-06-11T12:22:46.580Z,745.85
2019-06-11T12:25:29.537Z,674.35
2019-06-11T12:27:40.740Z,701.45
2019-06-11T12:30:11.985Z,695.27
2019-06-11T12:32:36.204Z,641.55
2019-06-11T12:35:04.283Z,665.77
2019-06-11T12:37:30.890Z,711.70
2019-06-11T12:39:58.962Z,784.37
2019-06-11T12:42:25.148Z,810.60
2019-06-11T12:44:53.238Z,839.87
2019-06-11T12:47:20.958Z,872.93
2019-06-11T12:49:47.193Z,886.03
2019-06-11T12:52:13.268Z,887.23
2019-06-11T12:54:41.163Z,859.17
2019-06-11T12:57:07.348Z,824.85
2019-06-11T12:59:33.431Z,820.15
2019-06-11T13:01:59.520Z,825.57
2019-06-11T13:04:25.608Z,864.67
2019-06-11T13:06:52.052Z,893.57
2019-06-11T13:09:20.434Z,925.77
2019-06-11T13:11:46.734Z,923.53
2019-06-11T13:14:12.811Z,949.83
2019-06-11T13:16:42.126Z,950.30
2019-06-11T13:19:07.067Z,936.83
2019-06-11T13:21:33.387Z,909.27
2019-06-11T13:24:01.730Z,867.40
2019-06-11T13:26:30.047Z,849.00
2019-06-11T13:28:56.052Z,833.30
2019-06-11T13:31:22.404Z,823.67
2019-06-11T13:33:50.489Z,798.53
2019-06-11T13:36:16.487Z,806.02
2019-06-11T13:38:42.659Z,792.80
2019-06-11T13:41:12.757Z,797.30
2019-06-11T13:43:51.079Z,809.30
2019-06-11T13:46:06.014Z,842.67
2019-06-11T13:48:32.353Z,869.50
2019-06-11T13:50:59.900Z,898.67
2019-06-11T13:53:26.527Z,928.73
2019-06-11T13:55:53.802Z,930.17
2019-06-11T13:58:21.544Z,945.77
2019-06-11T14:00:50.678Z,961.90
2019-06-11T14:03:16.533Z,974.90
2019-06-11T14:05:42.600Z,972.20
2019-06-11T14:08:10.657Z,950.87
2019-06-11T14:10:36.655Z,925.43
2019-06-11T14:13:06.240Z,883.17
2019-06-11T14:15:31.094Z,855.70
2019-06-11T14:17:57.336Z,813.75
2019-06-11T14:20:23.613Z,772.37
2019-06-11T14:22:50.891Z,739.52
2019-06-11T14:25:17.284Z,746.40
2019-06-11T14:27:43.372Z,732.65
2019-06-11T14:30:18.465Z,741.67
2019-06-11T14:32:41.666Z,784.97
2019-06-11T14:35:11.467Z,776.23
2019-06-11T14:37:37.628Z,811.07
2019-06-11T14:40:08.306Z,836.77
2019-06-11T14:42:35.188Z,889.97
2019-06-11T14:45:03.273Z,937.57
2019-06-11T14:47:30.724Z,963.00
2019-06-11T14:50:00.961Z,970.47
2019-06-11T14:52:24.897Z,976.40
2019-06-11T14:54:51.071Z,955.97
2019-06-11T14:57:17.137Z,935.27
2019-06-11T14:59:45.540Z,934.57
2019-06-11T15:02:11.189Z,957.10
2019-06-11T15:04:37.268Z,950.87
2019-06-11T15:07:09.271Z,934.70
2019-06-11T15:09:31.721Z,901.00
2019-06-11T15:12:01.879Z,824.63
2019-06-11T15:14:25.885Z,808.92
2019-06-11T15:16:51.987Z,802.80
2019-06-11T15:19:20.593Z,766.52
2019-06-11T15:21:46.045Z,751.15
2019-06-11T15:24:15.604Z,781.30
2019-06-11T15:26:41.245Z,742.25
2019-06-11T15:29:09.472Z,748.78
2019-06-11T15:31:35.510Z,791.38
2019-06-11T15:34:04.410Z,852.60
2019-06-11T15:36:29.564Z,884.53
2019-06-11T15:38:55.636Z,885.33
2019-06-11T15:41:22.533Z,881.83
2019-06-11T15:43:50.689Z,868.13
2019-06-11T15:46:16.997Z,839.50
2019-06-11T15:48:43.238Z,830.93
2019-06-11T15:51:09.419Z,846.07
2019-06-11T15:53:35.495Z,829.17
2019-06-11T15:56:06.146Z,793.70
2019-06-11T15:58:31.699Z,725.27
2019-06-11T16:00:57.557Z,713.30
2019-06-11T16:03:23.624Z,635.55
2019-06-11T16:05:51.115Z,589.67
2019-06-11T16:08:17.476Z,564.32
2019-06-11T16:10:43.560Z,520.62
2019-06-11T16:13:16.637Z,491.05
2019-06-11T16:15:43.570Z,470.12
2019-06-11T16:18:05.727Z,423.00
2019-06-11T16:20:31.791Z,437.55
2019-06-11T16:22:57.876Z,444.17
2019-06-11T16:25:23.943Z,480.22
2019-06-11T16:27:50.851Z,494.60
2019-06-11T16:30:18.544Z,488.57
2019-06-11T16:32:45.508Z,510.65
2019-06-11T16:35:16.246Z,530.05
2019-06-11T16:37:40.638Z,591.40
2019-06-11T16:40:07.640Z,628.20
2019-06-11T16:42:34.077Z,636.38
2019-06-11T16:45:00.315Z,642.85
2019-06-11T16:47:26.480Z,684.15
2019-06-11T16:49:53.414Z,726.90
2019-06-11T16:52:21.514Z,803.17
2019-06-11T16:54:47.718Z,808.83
2019-06-11T16:57:14.997Z,773.08
2019-06-11T16:59:41.797Z,747.00
2019-06-11T17:02:10.848Z,733.02
2019-06-11T17:04:35.925Z,706.15
2019-06-11T17:07:02.013Z,660.23
2019-06-11T17:09:28.072Z,634.85
2019-06-11T17:11:54.139Z,521.12
2019-06-11T17:14:24.017Z,459.07
2019-06-11T17:16:50.579Z,411.17
2019-06-11T17:19:16.755Z,382.92
2019-06-11T17:21:44.051Z,345.50
2019-06-11T17:24:12.167Z,357.02
2019-06-11T17:26:40.371Z,315.05
2019-06-11T17:29:06.100Z,308.63
2019-06-11T17:31:32.170Z,309.80
2019-06-11T17:34:00.352Z,271.93
2019-06-11T17:36:28.229Z,282.73
2019-06-11T17:38:54.210Z,272.27
2019-06-11T17:41:27.257Z,256.98
2019-06-11T17:43:50.281Z,267.80
2019-06-11T17:46:31.439Z,259.55
2019-06-11T17:48:44.430Z,246.30
2019-06-11T17:51:10.528Z,299.70
2019-06-11T17:53:36.709Z,302.25
2019-06-11T17:56:03.377Z,259.57
2019-06-11T17:58:29.461Z,297.90
2019-06-11T18:00:55.534Z,303.25
2019-06-11T18:03:24.306Z,256.00
2019-06-11T18:05:51.824Z,299.17
2019-06-11T18:08:21.388Z,265.37
2019-06-11T18:10:46.275Z,255.18
2019-06-11T18:13:12.367Z,228.67
2019-06-11T18:15:40.675Z,211.75
2019-06-11T18:18:06.437Z,267.57
2019-06-11T18:20:32.499Z,238.25
2019-06-11T18:23:00.631Z,273.38
2019-06-11T18:25:30.002Z,252.80
2019-06-11T18:27:54.632Z,259.62
2019-06-11T18:30:20.681Z,248.47
2019-06-11T18:32:46.968Z,285.75
2019-06-11T18:35:13.354Z,240.07
2019-06-11T18:37:41.362Z,234.52
2019-06-11T18:40:07.789Z,264.05
2019-06-11T18:42:33.957Z,228.67
2019-06-11T18:45:00.043Z,266.15
2019-06-11T18:47:27.281Z,219.53
2019-06-11T18:49:54.109Z,237.93
2019-06-11T18:52:22.086Z,206.28
2019-06-11T18:54:50.119Z,217.68
2019-06-11T18:57:16.945Z,205.05
2019-06-11T18:59:43.024Z,265.15
2019-06-11T19:02:09.088Z,232.95
2019-06-11T19:04:35.434Z,240.70
2019-06-11T19:07:01.632Z,223.13
2019-06-11T19:09:28.049Z,215.95
2019-06-11T19:11:55.395Z,226.42
2019-06-11T19:14:23.470Z,210.40
2019-06-11T19:16:51.057Z,204.53
2019-06-11T19:19:17.427Z,196.10
2019-06-11T19:21:43.514Z,234.15
2019-06-11T19:24:10.478Z,218.97
2019-06-11T19:26:36.872Z,194.10
2019-06-11T19:29:03.083Z,188.87
2019-06-11T19:31:34.366Z,206.13
2019-06-11T19:33:57.115Z,195.25
2019-06-11T19:36:25.272Z,200.70
2019-06-11T19:38:51.186Z,190.97
2019-06-11T19:41:17.253Z,203.10
2019-06-11T19:43:43.736Z,216.82
2019-06-11T19:46:09.931Z,201.22
2019-06-11T19:48:36.806Z,184.20
2019-06-11T19:51:03.621Z,178.38
2019-06-11T19:53:31.639Z,205.43
2019-06-11T19:55:57.736Z,196.20
2019-06-11T19:58:25.366Z,208.63
2019-06-11T20:00:51.692Z,192.45
2019-06-11T20:03:17.976Z,190.18
2019-06-11T20:05:44.090Z,203.58
2019-06-11T20:08:10.861Z,188.10
2019-06-11T20:10:42.511Z,181.12
2019-06-11T20:13:05.068Z,176.90
2019-06-11T20:15:34.600Z,191.03
2019-06-11T20:18:04.057Z,188.78
2019-06-11T20:20:28.354Z,183.40
2019-06-11T20:22:55.087Z,175.82
2019-06-11T20:25:21.163Z,179.27
2019-06-11T20:27:47.346Z,173.15
2019-06-11T20:30:14.043Z,179.15
2019-06-11T20:32:44.607Z,167.40
2019-06-11T20:35:08.594Z,185.50
2019-06-11T20:37:35.659Z,183.27
2019-06-11T20:40:03.960Z,192.03
2019-06-11T20:42:33.642Z,191.62
2019-06-11T20:45:00.683Z,244.72
2019-06-11T20:47:25.987Z,223.97
2019-06-11T20:49:52.069Z,196.43
2019-06-11T20:52:20.191Z,180.87
2019-06-11T20:54:46.123Z,193.87
2019-06-11T20:57:12.209Z,206.45
2019-06-11T20:59:39.126Z,179.40
2019-06-11T21:02:06.247Z,181.52
2019-06-11T21:04:33.594Z,207.22
2019-06-11T21:07:01.210Z,201.25
2019-06-11T21:09:27.480Z,181.10
2019-06-11T21:11:53.564Z,177.10
2019-06-11T21:14:20.344Z,175.70
2019-06-11T21:16:46.729Z,184.67
2019-06-11T21:19:12.818Z,188.27
2019-06-11T21:21:41.168Z,187.50
2019-06-11T21:24:06.980Z,188.62
2019-06-11T21:26:33.235Z,185.55
2019-06-11T21:29:00.255Z,180.40
2019-06-11T21:31:26.656Z,185.05
2019-06-11T21:33:52.722Z,193.62
2019-06-11T21:36:20.229Z,185.65
2019-06-11T21:38:46.759Z,173.82
2019-06-11T21:41:12.956Z,173.95
2019-06-11T21:43:41.428Z,174.02
2019-06-11T21:46:07.029Z,178.60
2019-06-11T21:48:49.594Z,178.35
2019-06-11T21:51:01.122Z,170.17
2019-06-11T21:53:27.184Z,203.67
2019-06-11T21:55:53.276Z,212.68
2019-06-11T21:58:21.676Z,222.73
2019-06-11T22:00:52.167Z,215.10
2019-06-11T22:03:15.732Z,198.72
2019-06-11T22:05:42.453Z,187.00
2019-06-11T22:08:10.379Z,219.50
2019-06-11T22:10:36.660Z,192.75
2019-06-11T22:13:03.027Z,184.67
2019-06-11T22:15:30.904Z,174.20
2019-06-11T22:17:57.092Z,169.32
2019-06-11T22:20:23.161Z,169.93
2019-06-11T22:22:51.272Z,174.40
2019-06-11T22:25:17.319Z,184.52
2019-06-11T22:27:44.777Z,191.15
2019-06-11T22:30:12.096Z,183.55
2019-06-11T22:32:38.181Z,180.42
2019-06-11T22:35:04.848Z,176.37
2019-06-11T22:37:31.258Z,172.78
2019-06-11T22:39:57.410Z,164.90
2019-06-11T22:42:23.588Z,175.10
2019-06-11T22:44:53.223Z,171.02
2019-06-11T22:47:20.027Z,164.00
2019-06-11T22:49:46.519Z,167.65
2019-06-11T22:52:13.617Z,175.57
2019-06-11T22:54:42.841Z,167.55
2019-06-11T22:57:07.696Z,166.80
2019-06-11T22:59:33.761Z,158.87
2019-06-11T23:02:00.780Z,159.87
2019-06-11T23:04:27.131Z,163.75
2019-06-11T23:06:53.317Z,167.10
2019-06-11T23:09:20.845Z,164.25
2019-06-11T23:11:47.923Z,170.95
2019-06-11T23:14:15.238Z,183.80
2019-06-11T23:16:43.679Z,163.18
2019-06-11T23:19:11.027Z,177.47
2019-06-11T23:21:37.376Z,180.65
2019-06-11T23:24:03.448Z,175.53
2019-06-11T23:26:31.119Z,170.60
2019-06-11T23:28:57.413Z,167.72
2019-06-11T23:31:23.596Z,168.78
2019-06-11T23:33:50.762Z,179.60
2019-06-11T23:36:19.956Z,168.10
2019-06-11T23:38:46.156Z,171.65
2019-06-11T23:41:12.409Z,172.80
2019-06-11T23:43:40.864Z,176.12
2019-06-11T23:46:06.538Z,169.82
2019-06-11T23:48:32.641Z,172.45
2019-06-11T23:50:58.708Z,182.45
2019-06-11T23:53:24.795Z,195.00
2019-06-11T23:55:51.354Z,197.35
2019-06-11T23:58:17.749Z,190.05
